Mc Ghee Tyson Airport
KTYS : now visible

Airfield :











YOU CAN JOIN US ON...

 
LOGIN :

Register | Disclaimer

   EN    FR    IT 

 









Legend :    VFR   Marginal VFR   IFR   Intensive IFR   Very Intensive IFR
Visi :
Ceiling :
>= 8 km
>= 3000ft
5 to 8 km
1000 to 3000 ft
1500m to 5 km
500 to 1000 ft
800 to 1500m
200 to 500 ft
< 800m
< 200 ft
Symbols :   Thunderstorms  Fog  Heavy snow  Heavy precipitations  Wind > 20 kt






- Airport Elevation : 981 ft
- IATA code : TYS


KTYS - Mc Ghee Tyson

CURRENT METAR :
  • 230153Z 00000KT 10SM CLR 20/16 A3014 RMK AO2 SLP199 T02000161

EXPIRED METARs :
  • 230053Z 00000KT 10SM CLR 21/16 A3014 RMK AO2 SLP200 T02110156
  • 222353Z 06004KT 10SM OVC065 21/15 A3013 RMK AO2 SLP197 T02110150 10278 20211 53003

TAF KTYS
Valid from the 23 at 00:00 until the 24 at 00:00 UTC


222335Z 2300/2324 00000KT P6SM FEW200
FM231100 00000KT 6SM BR SCT004 BKN011
FM231330 00000KT P6SM SCT050
FM231700 22006KT P6SM SCT080
KZTL FIR / North America



MET'MAP, your aeronautical weather chart ! - Copyright ORBIFLY December 2007 - Disclaimer

ORBIFLY MET'MAP TEAM :

Programming & Development : Alexandra Zaïnal
Concept & original design : Baudouin d'Aumeries
Assistance for programming : Marc-Olivier Méhu
Technical & hardware support : Manuel Goepfert

Contact : metmap@orbifly.com




SOURCES & CREDITS :

   NOAA       Earth
Advisory